sensor_id;sensor_type;location;lat;lon;timestamp;pressure;altitude;pressure_sealevel;temperature;humidity
62895;BME280;49204;44.916;37.998;2023-03-13T00:01:44;101390.08;;;5.07;80.89
62895;BME280;49204;44.916;37.998;2023-03-13T00:04:11;101392.73;;;5.00;80.64
62895;BME280;49204;44.916;37.998;2023-03-13T00:06:40;101399.27;;;4.97;80.64
62895;BME280;49204;44.916;37.998;2023-03-13T00:09:10;101406.25;;;4.92;80.70
62895;BME280;49204;44.916;37.998;2023-03-13T00:11:39;101406.69;;;4.90;80.64
62895;BME280;49204;44.916;37.998;2023-03-13T00:14:08;101414.52;;;4.90;80.71
62895;BME280;49204;44.916;37.998;2023-03-13T00:16:37;101408.89;;;4.91;80.53
62895;BME280;49204;44.916;37.998;2023-03-13T00:19:07;101404.53;;;4.88;80.38
62895;BME280;49204;44.916;37.998;2023-03-13T00:21:36;101406.69;;;4.89;80.25
62895;BME280;49204;44.916;37.998;2023-03-13T00:24:05;101413.70;;;4.83;80.12
62895;BME280;49204;44.916;37.998;2023-03-13T00:26:34;101422.84;;;4.79;80.09
62895;BME280;49204;44.916;37.998;2023-03-13T00:29:02;101435.92;;;4.76;80.13
62895;BME280;49204;44.916;37.998;2023-03-13T00:31:31;101433.72;;;4.81;80.04
62895;BME280;49204;44.916;37.998;2023-03-13T00:34:01;101430.67;;;4.79;79.62
62895;BME280;49204;44.916;37.998;2023-03-13T00:36:34;101432.87;;;4.70;79.88
62895;BME280;49204;44.916;37.998;2023-03-13T00:39:04;101431.15;;;4.68;79.89
62895;BME280;49204;44.916;37.998;2023-03-13T00:41:35;101435.51;;;4.67;79.84
62895;BME280;49204;44.916;37.998;2023-03-13T00:44:05;101437.67;;;4.68;79.59
62895;BME280;49204;44.916;37.998;2023-03-13T00:46:35;101432.90;;;4.69;79.46
62895;BME280;49204;44.916;37.998;2023-03-13T00:49:04;101446.39;;;4.63;79.31
62895;BME280;49204;44.916;37.998;2023-03-13T00:51:33;101456.84;;;4.56;79.46
62895;BME280;49204;44.916;37.998;2023-03-13T00:54:03;101460.75;;;4.51;78.83
62895;BME280;49204;44.916;37.998;2023-03-13T00:56:32;101465.98;;;4.56;79.16
62895;BME280;49204;44.916;37.998;2023-03-13T00:59:01;101468.55;;;4.59;79.13
62895;BME280;49204;44.916;37.998;2023-03-13T01:01:32;101474.25;;;4.52;78.57
62895;BME280;49204;44.916;37.998;2023-03-13T01:04:04;101482.50;;;4.47;78.68
62895;BME280;49204;44.916;37.998;2023-03-13T01:06:35;101481.64;;;4.45;78.48
62895;BME280;49204;44.916;37.998;2023-03-13T01:09:05;101492.96;;;4.41;78.61
62895;BME280;49204;44.916;37.998;2023-03-13T01:11:35;101492.09;;;4.37;78.65
62895;BME280;49204;44.916;37.998;2023-03-13T01:14:08;101488.59;;;4.37;78.32
62895;BME280;49204;44.916;37.998;2023-03-13T01:16:38;101492.08;;;4.33;78.25
62895;BME280;49204;44.916;37.998;2023-03-13T01:19:13;101498.59;;;4.33;78.42
62895;BME280;49204;44.916;37.998;2023-03-13T01:21:43;101489.48;;;4.33;78.35
62895;BME280;49204;44.916;37.998;2023-03-13T01:24:12;101489.48;;;4.34;78.27
62895;BME280;49204;44.916;37.998;2023-03-13T01:26:42;101494.69;;;4.34;77.90
62895;BME280;49204;44.916;37.998;2023-03-13T01:29:11;101500.34;;;4.29;77.37
62895;BME280;49204;44.916;37.998;2023-03-13T01:31:40;101502.08;;;4.25;75.92
62895;BME280;49204;44.916;37.998;2023-03-13T01:34:10;101497.75;;;4.24;77.42
62895;BME280;49204;44.916;37.998;2023-03-13T01:36:38;101496.42;;;4.28;77.47
62895;BME280;49204;44.916;37.998;2023-03-13T01:39:07;101494.27;;;4.29;77.50
62895;BME280;49204;44.916;37.998;2023-03-13T01:41:37;101500.78;;;4.27;77.28
62895;BME280;49204;44.916;37.998;2023-03-13T01:44:08;101501.66;;;4.21;77.33
62895;BME280;49204;44.916;37.998;2023-03-13T01:46:37;101499.05;;;4.23;77.36
62895;BME280;49204;44.916;37.998;2023-03-13T01:52:04;101506.86;;;4.20;77.28
62895;BME280;49204;44.916;37.998;2023-03-13T01:54:37;101512.52;;;4.16;76.88
62895;BME280;49204;44.916;37.998;2023-03-13T01:57:12;101518.16;;;4.14;77.22
62895;BME280;49204;44.916;37.998;2023-03-13T01:59:43;101516.41;;;4.15;77.17
62895;BME280;49204;44.916;37.998;2023-03-13T02:02:13;101524.70;;;4.10;77.04
62895;BME280;49204;44.916;37.998;2023-03-13T02:04:47;101532.95;;;4.06;77.10
62895;BME280;49204;44.916;37.998;2023-03-13T02:07:22;101535.11;;;3.99;76.93
62895;BME280;49204;44.916;37.998;2023-03-13T02:09:51;101536.84;;;3.97;77.00
62895;BME280;49204;44.916;37.998;2023-03-13T02:12:30;101534.67;;;3.93;76.93
62895;BME280;49204;44.916;37.998;2023-03-13T02:15:07;101529.88;;;3.94;77.02
62895;BME280;49204;44.916;37.998;2023-03-13T02:17:38;101540.72;;;3.89;76.79
62895;BME280;49204;44.916;37.998;2023-03-13T02:20:08;101547.22;;;3.81;76.85
62895;BME280;49204;44.916;37.998;2023-03-13T02:22:44;101542.45;;;3.73;76.88
62895;BME280;49204;44.916;37.998;2023-03-13T02:30:47;101566.75;;;3.67;77.05
62895;BME280;49204;44.916;37.998;2023-03-13T02:33:18;101563.70;;;3.62;77.06
62895;BME280;49204;44.916;37.998;2023-03-13T02:35:48;101572.81;;;3.62;77.06
62895;BME280;49204;44.916;37.998;2023-03-13T02:38:21;101574.52;;;3.57;76.89
62895;BME280;49204;44.916;37.998;2023-03-13T02:40:50;101576.23;;;3.52;76.92
62895;BME280;49204;44.916;37.998;2023-03-13T02:43:31;101582.73;;;3.45;76.89
62895;BME280;49204;44.916;37.998;2023-03-13T02:48:38;101591.83;;;3.42;77.07
62895;BME280;49204;44.916;37.998;2023-03-13T02:51:35;101608.33;;;3.41;77.11
62895;BME280;49204;44.916;37.998;2023-03-13T02:53:42;101598.77;;;3.42;77.11
62895;BME280;49204;44.916;37.998;2023-03-13T02:56:14;101602.64;;;3.37;76.98
62895;BME280;49204;44.916;37.998;2023-03-13T02:58:44;101610.05;;;3.38;76.86
62895;BME280;49204;44.916;37.998;2023-03-13T03:01:12;101619.59;;;3.40;76.86
62895;BME280;49204;44.916;37.998;2023-03-13T03:03:41;101628.27;;;3.41;76.71
62895;BME280;49204;44.916;37.998;2023-03-13T03:06:10;101632.16;;;3.39;76.63
62895;BME280;49204;44.916;37.998;2023-03-13T03:08:39;101628.27;;;3.38;76.58
62895;BME280;49204;44.916;37.998;2023-03-13T03:11:11;101633.44;;;3.33;76.56
62895;BME280;49204;44.916;37.998;2023-03-13T03:13:40;101639.51;;;3.31;76.62
62895;BME280;49204;44.916;37.998;2023-03-13T03:16:11;101649.94;;;3.32;76.62
62895;BME280;49204;44.916;37.998;2023-03-13T03:18:41;101651.20;;;3.29;76.60
62895;BME280;49204;44.916;37.998;2023-03-13T03:21:10;101643.84;;;3.28;76.56
62895;BME280;49204;44.916;37.998;2023-03-13T03:23:39;101649.89;;;3.27;76.46
62895;BME280;49204;44.916;37.998;2023-03-13T03:26:08;101656.40;;;3.27;76.44
62895;BME280;49204;44.916;37.998;2023-03-13T03:28:36;101670.28;;;3.28;76.37
62895;BME280;49204;44.916;37.998;2023-03-13T03:31:09;101683.78;;;3.32;76.39
62895;BME280;49204;44.916;37.998;2023-03-13T03:33:39;101690.72;;;3.35;76.48
62895;BME280;49204;44.916;37.998;2023-03-13T03:36:14;101695.95;;;3.38;76.47
62895;BME280;49204;44.916;37.998;2023-03-13T03:38:42;101699.39;;;3.35;76.56
62895;BME280;49204;44.916;37.998;2023-03-13T03:41:13;101699.83;;;3.35;76.56
62895;BME280;49204;44.916;37.998;2023-03-13T03:43:42;101692.89;;;3.32;76.69
62895;BME280;49204;44.916;37.998;2023-03-13T03:46:13;101695.88;;;3.30;76.81
62895;BME280;49204;44.916;37.998;2023-03-13T03:48:42;101691.59;;;3.32;76.86
62895;BME280;49204;44.916;37.998;2023-03-13T03:51:11;101700.27;;;3.34;76.72
62895;BME280;49204;44.916;37.998;2023-03-13T03:53:41;101710.27;;;3.36;76.77
62895;BME280;49204;44.916;37.998;2023-03-13T03:56:10;101715.91;;;3.36;76.65
62895;BME280;49204;44.916;37.998;2023-03-13T03:58:40;101713.28;;;3.37;76.55
62895;BME280;49204;44.916;37.998;2023-03-13T04:01:22;101708.55;;;3.40;76.35
62895;BME280;49204;44.916;37.998;2023-03-13T04:03:51;101718.54;;;3.42;76.11
62895;BME280;49204;44.916;37.998;2023-03-13T04:06:20;101727.21;;;3.42;75.99
62895;BME280;49204;44.916;37.998;2023-03-13T04:08:49;101732.42;;;3.42;75.84
62895;BME280;49204;44.916;37.998;2023-03-13T04:11:19;101741.11;;;3.44;75.76
62895;BME280;49204;44.916;37.998;2023-03-13T04:13:50;101741.11;;;3.41;75.60
62895;BME280;49204;44.916;37.998;2023-03-13T04:16:18;101743.26;;;3.40;75.67
62895;BME280;49204;44.916;37.998;2023-03-13T04:18:48;101741.06;;;3.37;75.70
62895;BME280;49204;44.916;37.998;2023-03-13T04:21:17;101743.65;;;3.35;75.71
62895;BME280;49204;44.916;37.998;2023-03-13T04:23:53;101751.05;;;3.36;75.72
62895;BME280;49204;44.916;37.998;2023-03-13T04:26:23;101764.49;;;3.37;75.68
62895;BME280;49204;44.916;37.998;2023-03-13T04:28:53;101768.83;;;3.35;75.59
62895;BME280;49204;44.916;37.998;2023-03-13T04:31:23;101768.86;;;3.38;75.54
62895;BME280;49204;44.916;37.998;2023-03-13T04:34:05;101782.75;;;3.40;75.56
62895;BME280;49204;44.916;37.998;2023-03-13T04:36:41;101782.31;;;3.40;75.59
62895;BME280;49204;44.916;37.998;2023-03-13T04:39:28;101782.75;;;3.40;75.56
62895;BME280;49204;44.916;37.998;2023-03-13T04:42:14;101791.00;;;3.42;75.59
62895;BME280;49204;44.916;37.998;2023-03-13T04:45:01;101793.20;;;3.46;75.59
62895;BME280;49204;44.916;37.998;2023-03-13T04:47:37;101796.70;;;3.50;75.55
62895;BME280;49204;44.916;37.998;2023-03-13T04:50:10;101803.66;;;3.54;75.46
62895;BME280;49204;44.916;37.998;2023-03-13T04:52:43;101802.36;;;3.54;75.24
62895;BME280;49204;44.916;37.998;2023-03-13T04:55:14;101811.09;;;3.59;75.42
62895;BME280;49204;44.916;37.998;2023-03-13T04:58:01;101812.84;;;3.63;75.27
62895;BME280;49204;44.916;37.998;2023-03-13T05:00:46;101815.97;;;3.73;75.30
62895;BME280;49204;44.916;37.998;2023-03-13T05:03:23;101825.12;;;3.81;75.23
62895;BME280;49204;44.916;37.998;2023-03-13T05:05:53;101829.47;;;3.80;75.11
62895;BME280;49204;44.916;37.998;2023-03-13T05:08:23;101836.41;;;3.78;74.93
62895;BME280;49204;44.916;37.998;2023-03-13T05:10:54;101836.83;;;3.79;74.98
62895;BME280;49204;44.916;37.998;2023-03-13T05:13:27;101840.30;;;3.80;74.97
62895;BME280;49204;44.916;37.998;2023-03-13T05:16:00;101839.47;;;3.82;74.96
62895;BME280;49204;44.916;37.998;2023-03-13T05:18:37;101841.20;;;3.83;74.94
62895;BME280;49204;44.916;37.998;2023-03-13T05:21:07;101842.08;;;3.82;74.75
62895;BME280;49204;44.916;37.998;2023-03-13T05:23:38;101846.41;;;3.83;74.79
62895;BME280;49204;44.916;37.998;2023-03-13T05:26:11;101846.42;;;3.85;74.70
62895;BME280;49204;44.916;37.998;2023-03-13T05:28:44;101851.23;;;3.85;74.65
62895;BME280;49204;44.916;37.998;2023-03-13T05:31:14;101853.41;;;3.88;74.53
62895;BME280;49204;44.916;37.998;2023-03-13T05:33:44;101851.68;;;3.90;74.47
62895;BME280;49204;44.916;37.998;2023-03-13T05:36:23;101854.77;;;3.97;74.44
62895;BME280;49204;44.916;37.998;2023-03-13T05:39:10;101857.00;;;4.08;74.48
62895;BME280;49204;44.916;37.998;2023-03-13T05:41:43;101856.64;;;4.21;74.00
62895;BME280;49204;44.916;37.998;2023-03-13T05:44:19;101866.26;;;4.34;73.91
62895;BME280;49204;44.916;37.998;2023-03-13T05:46:52;101874.57;;;4.48;73.75
62895;BME280;49204;44.916;37.998;2023-03-13T05:49:39;101876.34;;;4.50;73.37
62895;BME280;49204;44.916;37.998;2023-03-13T05:52:15;101881.57;;;4.56;73.29
62895;BME280;49204;44.916;37.998;2023-03-13T05:54:55;101879.86;;;4.61;73.25
62895;BME280;49204;44.916;37.998;2023-03-13T05:57:37;101886.37;;;4.64;73.07
62895;BME280;49204;44.916;37.998;2023-03-13T06:00:08;101886.84;;;4.69;73.08
62895;BME280;49204;44.916;37.998;2023-03-13T06:02:40;101894.27;;;4.78;72.84
62895;BME280;49204;44.916;37.998;2023-03-13T06:05:11;101896.89;;;4.86;72.67
62895;BME280;49204;44.916;37.998;2023-03-13T06:07:40;101899.49;;;4.84;72.16
62895;BME280;49204;44.916;37.998;2023-03-13T06:10:10;101897.33;;;4.84;72.12
62895;BME280;49204;44.916;37.998;2023-03-13T06:12:38;101897.78;;;4.85;72.11
62895;BME280;49204;44.916;37.998;2023-03-13T06:15:09;101902.56;;;4.87;71.97
62895;BME280;49204;44.916;37.998;2023-03-13T06:17:42;101901.27;;;4.87;71.67
62895;BME280;49204;44.916;37.998;2023-03-13T06:20:11;101906.91;;;4.88;71.50
62895;BME280;49204;44.916;37.998;2023-03-13T06:22:40;101896.03;;;4.86;71.15
62895;BME280;49204;44.916;37.998;2023-03-13T06:25:09;101903.40;;;4.83;70.87
62895;BME280;49204;44.916;37.998;2023-03-13T06:27:39;101903.41;;;4.84;70.79
62895;BME280;49204;44.916;37.998;2023-03-13T06:30:10;101899.52;;;4.88;70.70
62895;BME280;49204;44.916;37.998;2023-03-13T06:32:38;101905.19;;;4.99;70.83
62895;BME280;49204;44.916;37.998;2023-03-13T06:35:07;101908.26;;;5.07;70.47
62895;BME280;49204;44.916;37.998;2023-03-13T06:37:36;101916.53;;;5.11;70.32
62895;BME280;49204;44.916;37.998;2023-03-13T06:40:06;101912.64;;;5.17;70.20
62895;BME280;49204;44.916;37.998;2023-03-13T06:42:34;101907.87;;;5.30;70.15
62895;BME280;49204;44.916;37.998;2023-03-13T06:45:03;101914.00;;;5.46;70.03
62895;BME280;49204;44.916;37.998;2023-03-13T06:47:32;101916.61;;;5.60;69.52
62895;BME280;49204;44.916;37.998;2023-03-13T06:50:01;101925.76;;;5.69;69.28
62895;BME280;49204;44.916;37.998;2023-03-13T06:52:29;101928.36;;;5.75;68.98
62895;BME280;49204;44.916;37.998;2023-03-13T06:54:58;101934.92;;;5.83;68.69
62895;BME280;49204;44.916;37.998;2023-03-13T06:57:27;101925.33;;;5.84;68.26
62895;BME280;49204;44.916;37.998;2023-03-13T06:59:56;101935.78;;;5.94;68.47
62895;BME280;49204;44.916;37.998;2023-03-13T07:02:24;101941.91;;;6.07;68.21
62895;BME280;49204;44.916;37.998;2023-03-13T07:04:53;101937.97;;;6.16;68.00
62895;BME280;49204;44.916;37.998;2023-03-13T07:07:22;101924.42;;;6.25;67.76
62895;BME280;49204;44.916;37.998;2023-03-13T07:09:50;101933.59;;;6.31;67.29
62895;BME280;49204;44.916;37.998;2023-03-13T07:12:19;101932.23;;;6.42;66.77
62895;BME280;49204;44.916;37.998;2023-03-13T07:14:47;101933.98;;;6.46;66.24
62895;BME280;49204;44.916;37.998;2023-03-13T07:17:16;101934.85;;;6.49;66.07
62895;BME280;49204;44.916;37.998;2023-03-13T07:19:45;101936.16;;;6.49;65.94
62895;BME280;49204;44.916;37.998;2023-03-13T07:22:13;101942.25;;;6.50;65.72
62895;BME280;49204;44.916;37.998;2023-03-13T07:24:42;101933.09;;;6.51;65.65
62895;BME280;49204;44.916;37.998;2023-03-13T07:27:11;101936.55;;;6.56;65.70
62895;BME280;49204;44.916;37.998;2023-03-13T07:29:40;101937.41;;;6.68;65.71
62895;BME280;49204;44.916;37.998;2023-03-13T07:32:09;101938.23;;;6.76;65.37
62895;BME280;49204;44.916;37.998;2023-03-13T07:34:37;101933.37;;;6.88;65.09
62895;BME280;49204;44.916;37.998;2023-03-13T07:37:06;101939.42;;;7.01;64.85
62895;BME280;49204;44.916;37.998;2023-03-13T07:39:34;101936.73;;;7.16;64.65
62895;BME280;49204;44.916;37.998;2023-03-13T07:42:03;101936.62;;;7.34;64.38
62895;BME280;49204;44.916;37.998;2023-03-13T07:44:33;101936.50;;;7.53;63.81
62895;BME280;49204;44.916;37.998;2023-03-13T07:47:02;101938.66;;;7.55;62.52
62895;BME280;49204;44.916;37.998;2023-03-13T07:49:31;101939.50;;;7.62;62.20
62895;BME280;49204;44.916;37.998;2023-03-13T07:52:00;101940.30;;;7.68;61.80
62895;BME280;49204;44.916;37.998;2023-03-13T07:54:28;101938.92;;;7.78;61.57
62895;BME280;49204;44.916;37.998;2023-03-13T07:56:57;101927.96;;;7.83;60.80
62895;BME280;49204;44.916;37.998;2023-03-13T07:59:26;101924.05;;;7.80;60.67
62895;BME280;49204;44.916;37.998;2023-03-13T08:01:54;101930.61;;;7.78;60.58
62895;BME280;49204;44.916;37.998;2023-03-13T08:04:23;101930.66;;;7.73;60.35
62895;BME280;49204;44.916;37.998;2023-03-13T08:06:52;101914.08;;;7.71;60.21
62895;BME280;49204;44.916;37.998;2023-03-13T08:09:21;101910.55;;;7.72;60.05
62895;BME280;49204;44.916;37.998;2023-03-13T08:11:49;101915.84;;;7.69;60.02
62895;BME280;49204;44.916;37.998;2023-03-13T08:14:18;101921.10;;;7.66;60.19
62895;BME280;49204;44.916;37.998;2023-03-13T08:16:46;101924.72;;;7.50;59.45
62895;BME280;49204;44.916;37.998;2023-03-13T08:19:15;101915.66;;;7.36;59.30
62895;BME280;49204;44.916;37.998;2023-03-13T08:21:44;101919.66;;;7.25;59.26
62895;BME280;49204;44.916;37.998;2023-03-13T08:24:12;101922.28;;;7.22;59.43
62895;BME280;49204;44.916;37.998;2023-03-13T08:26:41;101927.53;;;7.19;59.00
62895;BME280;49204;44.916;37.998;2023-03-13T08:29:12;101929.69;;;7.24;59.18
62895;BME280;49204;44.916;37.998;2023-03-13T08:31:46;101929.69;;;7.26;58.71
62895;BME280;49204;44.916;37.998;2023-03-13T08:34:16;101930.99;;;7.27;58.34
62895;BME280;49204;44.916;37.998;2023-03-13T08:36:45;101925.75;;;7.27;57.75
62895;BME280;49204;44.916;37.998;2023-03-13T08:39:15;101923.47;;;7.41;57.97
62895;BME280;49204;44.916;37.998;2023-03-13T08:41:45;101915.94;;;7.57;57.80
62895;BME280;49204;44.916;37.998;2023-03-13T08:44:17;101916.73;;;7.65;57.02
62895;BME280;49204;44.916;37.998;2023-03-13T08:46:45;101925.41;;;7.75;56.08
62895;BME280;49204;44.916;37.998;2023-03-13T08:49:15;101914.33;;;7.91;55.79
62895;BME280;49204;44.916;37.998;2023-03-13T08:51:44;101915.34;;;8.23;55.99
62895;BME280;49204;44.916;37.998;2023-03-13T08:54:12;101915.45;;;8.54;55.48
62895;BME280;49204;44.916;37.998;2023-03-13T08:56:41;101909.45;;;8.80;55.10
62895;BME280;49204;44.916;37.998;2023-03-13T08:59:10;101910.04;;;9.02;54.46
62895;BME280;49204;44.916;37.998;2023-03-13T09:01:39;101911.48;;;9.23;53.78
62895;BME280;49204;44.916;37.998;2023-03-13T09:04:07;101906.02;;;9.39;53.66
62895;BME280;49204;44.916;37.998;2023-03-13T09:06:37;101904.77;;;9.61;53.33
62895;BME280;49204;44.916;37.998;2023-03-13T09:09:06;101900.69;;;9.69;53.09
62895;BME280;49204;44.916;37.998;2023-03-13T09:11:36;101909.22;;;9.83;52.77
62895;BME280;49204;44.916;37.998;2023-03-13T09:14:06;101909.80;;;9.99;52.95
62895;BME280;49204;44.916;37.998;2023-03-13T09:16:35;101908.40;;;10.05;52.34
62895;BME280;49204;44.916;37.998;2023-03-13T09:19:05;101911.82;;;10.11;51.54
62895;BME280;49204;44.916;37.998;2023-03-13T09:21:34;101907.70;;;10.20;51.28
62895;BME280;49204;44.916;37.998;2023-03-13T09:24:03;101903.70;;;10.46;51.77
62895;BME280;49204;44.916;37.998;2023-03-13T09:26:32;101910.45;;;10.60;50.94
62895;BME280;49204;44.916;37.998;2023-03-13T09:29:00;101908.05;;;10.69;50.98
62895;BME280;49204;44.916;37.998;2023-03-13T09:31:31;101900.16;;;10.69;50.04
62895;BME280;49204;44.916;37.998;2023-03-13T09:34:00;101901.31;;;10.56;50.35
62895;BME280;49204;44.916;37.998;2023-03-13T09:36:29;101900.99;;;10.50;50.31
62895;BME280;49204;44.916;37.998;2023-03-13T09:38:59;101897.49;;;10.71;50.26
62895;BME280;49204;44.916;37.998;2023-03-13T09:41:48;101889.83;;;11.20;49.27
62895;BME280;49204;44.916;37.998;2023-03-13T09:46:57;101871.47;;;13.09;47.80
62895;BME280;49204;44.916;37.998;2023-03-13T09:52:35;101856.31;;;14.69;45.65
62895;BME280;49204;44.916;37.998;2023-03-13T09:55:04;101857.72;;;15.33;44.20
62895;BME280;49204;44.916;37.998;2023-03-13T09:57:34;101850.44;;;15.49;43.10
62895;BME280;49204;44.916;37.998;2023-03-13T10:00:24;101860.45;;;15.74;42.72
62895;BME280;49204;44.916;37.998;2023-03-13T10:05:43;101869.23;;;15.44;39.17
62895;BME280;49204;44.916;37.998;2023-03-13T10:08:34;101854.13;;;15.34;39.44
62895;BME280;49204;44.916;37.998;2023-03-13T10:11:10;101838.52;;;15.59;40.54
62895;BME280;49204;44.916;37.998;2023-03-13T10:13:49;101830.89;;;15.51;39.61
62895;BME280;49204;44.916;37.998;2023-03-13T10:18:57;101837.45;;;15.63;39.03
62895;BME280;49204;44.916;37.998;2023-03-13T10:21:31;101838.52;;;15.59;39.46
62895;BME280;49204;44.916;37.998;2023-03-13T10:27:06;101839.58;;;16.06;39.17
62895;BME280;49204;44.916;37.998;2023-03-13T10:29:35;101836.23;;;15.92;37.55
62895;BME280;49204;44.916;37.998;2023-03-13T10:32:06;101834.27;;;15.55;36.89
62895;BME280;49204;44.916;37.998;2023-03-13T10:34:56;101831.48;;;15.48;37.57
62895;BME280;49204;44.916;37.998;2023-03-13T10:37:29;101832.16;;;15.20;38.19
62895;BME280;49204;44.916;37.998;2023-03-13T10:40:13;101843.28;;;14.74;38.15
62895;BME280;49204;44.916;37.998;2023-03-13T10:42:45;101846.81;;;14.63;38.95
62895;BME280;49204;44.916;37.998;2023-03-13T10:45:17;101826.94;;;14.49;39.31
62895;BME280;49204;44.916;37.998;2023-03-13T10:47:53;101821.94;;;14.42;39.11
62895;BME280;49204;44.916;37.998;2023-03-13T10:50:25;101829.25;;;14.23;39.71
62895;BME280;49204;44.916;37.998;2023-03-13T10:52:54;101830.64;;;14.45;40.02
62895;BME280;49204;44.916;37.998;2023-03-13T10:55:24;101840.45;;;14.55;39.02
62895;BME280;49204;44.916;37.998;2023-03-13T10:58:04;101836.58;;;14.52;38.94
62895;BME280;49204;44.916;37.998;2023-03-13T11:00:37;101829.78;;;14.45;39.15
62895;BME280;49204;44.916;37.998;2023-03-13T11:03:30;101837.80;;;14.55;38.75
62895;BME280;49204;44.916;37.998;2023-03-13T11:05:41;101831.34;;;14.62;38.08
62895;BME280;49204;44.916;37.998;2023-03-13T11:08:18;101816.02;;;14.71;38.78
62895;BME280;49204;44.916;37.998;2023-03-13T11:11:15;101819.48;;;14.37;38.68
62895;BME280;49204;44.916;37.998;2023-03-13T11:13:42;101816.25;;;14.41;38.81
62895;BME280;49204;44.916;37.998;2023-03-13T11:16:28;101799.98;;;14.38;38.83
62895;BME280;49204;44.916;37.998;2023-03-13T11:19:26;101795.63;;;14.37;39.50
62895;BME280;49204;44.916;37.998;2023-03-13T11:30:48;101800.09;;;14.00;39.28
62895;BME280;49204;44.916;37.998;2023-03-13T11:33:35;101798.53;;;13.82;39.53
62895;BME280;49204;44.916;37.998;2023-03-13T11:41:44;101800.67;;;13.46;39.86
62895;BME280;49204;44.916;37.998;2023-03-13T11:55:27;101793.76;;;11.48;41.91
62895;BME280;49204;44.916;37.998;2023-03-13T11:58:01;101792.75;;;11.19;42.45
62895;BME280;49204;44.916;37.998;2023-03-13T12:00:47;101803.19;;;10.87;42.66
62895;BME280;49204;44.916;37.998;2023-03-13T12:03:25;101801.49;;;10.65;43.03
62895;BME280;49204;44.916;37.998;2023-03-13T12:05:53;101811.97;;;10.47;43.62
62895;BME280;49204;44.916;37.998;2023-03-13T12:08:43;101821.33;;;10.40;43.89
62895;BME280;49204;44.916;37.998;2023-03-13T12:11:31;101824.55;;;10.32;44.08
62895;BME280;49204;44.916;37.998;2023-03-13T12:14:14;101817.02;;;10.12;44.08
62895;BME280;49204;44.916;37.998;2023-03-13T12:16:50;101808.32;;;10.09;44.43
62895;BME280;49204;44.916;37.998;2023-03-13T12:19:21;101807.25;;;10.19;44.65
62895;BME280;49204;44.916;37.998;2023-03-13T12:21:49;101811.43;;;10.07;44.66
62895;BME280;49204;44.916;37.998;2023-03-13T12:24:40;101815.03;;;9.80;44.56
62895;BME280;49204;44.916;37.998;2023-03-13T12:27:17;101804.48;;;9.57;44.79
62895;BME280;49204;44.916;37.998;2023-03-13T12:30:13;101800.59;;;9.54;45.08
62895;BME280;49204;44.916;37.998;2023-03-13T12:33:09;101810.11;;;9.61;45.32
62895;BME280;49204;44.916;37.998;2023-03-13T12:35:29;101809.52;;;9.68;45.59
62895;BME280;49204;44.916;37.998;2023-03-13T12:43:48;101815.73;;;9.40;45.77
62895;BME280;49204;44.916;37.998;2023-03-13T12:46:40;101821.73;;;9.48;46.17
62895;BME280;49204;44.916;37.998;2023-03-13T12:58:08;101814.39;;;9.41;46.18
62895;BME280;49204;44.916;37.998;2023-03-13T13:00:36;101822.39;;;9.35;46.54
62895;BME280;49204;44.916;37.998;2023-03-13T13:06:13;101825.44;;;9.35;46.60
62895;BME280;49204;44.916;37.998;2023-03-13T13:16:49;101824.17;;;9.06;47.32
62895;BME280;49204;44.916;37.998;2023-03-13T13:27:50;101829.59;;;8.94;47.05
62895;BME280;49204;44.916;37.998;2023-03-13T13:30:29;101823.59;;;8.85;47.21
62895;BME280;49204;44.916;37.998;2023-03-13T13:33:42;101831.17;;;8.75;47.13
62895;BME280;49204;44.916;37.998;2023-03-13T13:35:34;101827.70;;;8.73;47.25
62895;BME280;49204;44.916;37.998;2023-03-13T13:38:21;101828.58;;;8.72;47.47
62895;BME280;49204;44.916;37.998;2023-03-13T13:41:43;101832.16;;;8.66;47.29
62895;BME280;49204;44.916;37.998;2023-03-13T13:43:36;101827.48;;;8.57;47.20
62895;BME280;49204;44.916;37.998;2023-03-13T13:49:18;101815.42;;;8.43;47.62
62895;BME280;49204;44.916;37.998;2023-03-13T13:57:24;101806.98;;;8.52;48.08
62895;BME280;49204;44.916;37.998;2023-03-13T13:59:51;101817.94;;;8.51;48.18
62895;BME280;49204;44.916;37.998;2023-03-13T14:02:29;101823.28;;;8.40;48.07
62895;BME280;49204;44.916;37.998;2023-03-13T14:10:30;101830.30;;;8.00;47.36
62895;BME280;49204;44.916;37.998;2023-03-13T14:13:01;101824.67;;;7.96;48.03
62895;BME280;49204;44.916;37.998;2023-03-13T14:15:30;101832.16;;;7.90;48.27
62895;BME280;49204;44.916;37.998;2023-03-13T14:18:11;101825.25;;;7.82;48.03
62895;BME280;49204;44.916;37.998;2023-03-13T14:20:59;101822.31;;;7.71;48.08
62895;BME280;49204;44.916;37.998;2023-03-13T14:28:48;101825.14;;;7.47;48.78
62895;BME280;49204;44.916;37.998;2023-03-13T14:31:27;101821.28;;;7.41;49.11
62895;BME280;49204;44.916;37.998;2023-03-13T14:33:59;101824.37;;;7.35;49.45
62895;BME280;49204;44.916;37.998;2023-03-13T14:36:27;101829.68;;;7.28;49.60
62895;BME280;49204;44.916;37.998;2023-03-13T14:38:57;101838.45;;;7.22;49.89
62895;BME280;49204;44.916;37.998;2023-03-13T14:41:52;101842.85;;;7.17;50.00
62895;BME280;49204;44.916;37.998;2023-03-13T14:44:03;101846.84;;;7.11;50.07
62895;BME280;49204;44.916;37.998;2023-03-13T14:46:36;101843.83;;;7.01;50.27
62895;BME280;49204;44.916;37.998;2023-03-13T14:49:21;101853.95;;;6.93;50.52
62895;BME280;49204;44.916;37.998;2023-03-13T14:52:06;101850.03;;;6.86;50.73
62895;BME280;49204;44.916;37.998;2023-03-13T14:54:35;101848.33;;;6.80;51.01
62895;BME280;49204;44.916;37.998;2023-03-13T14:59:38;101857.13;;;6.64;51.60
62895;BME280;49204;44.916;37.998;2023-03-13T15:02:17;101860.66;;;6.56;52.01